createdAt,value
2019-01-11T00:01:15.960Z,90.30
2019-01-11T00:03:46.425Z,90.30
2019-01-11T00:06:16.892Z,90.20
2019-01-11T00:08:47.350Z,90.20
2019-01-11T00:11:17.908Z,90.20
2019-01-11T00:13:49.436Z,90.10
2019-01-11T00:16:19.901Z,90.50
2019-01-11T00:18:50.384Z,90.00
2019-01-11T00:21:21.157Z,90.10
2019-01-11T00:23:51.600Z,90.10
2019-01-11T00:26:22.064Z,90.20
2019-01-11T00:28:52.593Z,90.20
2019-01-11T00:31:23.154Z,90.10
2019-01-11T00:33:53.580Z,90.30
2019-01-11T00:36:24.087Z,90.00
2019-01-11T00:38:54.569Z,90.00
2019-01-11T00:41:25.369Z,89.80
2019-01-11T00:43:55.867Z,90.00
2019-01-11T00:46:26.621Z,89.80
2019-01-11T00:48:57.073Z,89.70
2019-01-11T00:51:27.540Z,89.50
2019-01-11T00:53:58.181Z,89.50
2019-01-11T00:56:29.009Z,89.70
2019-01-11T00:58:59.560Z,89.70
2019-01-11T01:01:30.017Z,89.60
2019-01-11T01:04:00.472Z,89.60
2019-01-11T01:06:31.004Z,89.40
2019-01-11T01:09:01.468Z,89.30
2019-01-11T01:11:33.790Z,90.00
2019-01-11T01:14:04.351Z,89.40
2019-01-11T01:16:34.905Z,89.60
2019-01-11T01:19:05.460Z,89.70
2019-01-11T01:21:35.934Z,89.90
2019-01-11T01:24:06.386Z,90.00
2019-01-11T01:26:36.856Z,90.50
2019-01-11T01:29:08.605Z,90.00
2019-01-11T01:31:39.205Z,89.70
2019-01-11T01:34:09.641Z,89.70
2019-01-11T01:36:40.141Z,89.90
2019-01-11T01:39:10.594Z,89.70
2019-01-11T01:41:41.087Z,89.50
2019-01-11T01:44:12.271Z,89.70
2019-01-11T01:46:43.001Z,89.90
2019-01-11T01:49:13.602Z,89.90
2019-01-11T01:51:44.072Z,89.90
2019-01-11T01:54:14.520Z,90.10
2019-01-11T01:56:45.045Z,89.90
2019-01-11T01:59:16.576Z,89.70
2019-01-11T02:01:47.308Z,89.90
2019-01-11T02:04:19.157Z,89.70
2019-01-11T02:06:52.738Z,89.70
2019-01-11T02:09:23.201Z,90.00
2019-01-11T02:11:53.746Z,90.00
2019-01-11T02:14:24.294Z,89.80
2019-01-11T02:16:54.736Z,90.00
2019-01-11T02:19:25.269Z,90.00
2019-01-11T02:21:55.712Z,90.00
2019-01-11T02:24:26.172Z,89.90
2019-01-11T02:26:56.628Z,89.70
2019-01-11T02:29:27.084Z,89.80
2019-01-11T02:31:57.545Z,89.80
2019-01-11T02:34:28.245Z,89.70
2019-01-11T02:36:58.921Z,89.70
2019-01-11T02:39:29.373Z,89.90
2019-01-11T02:42:00.069Z,89.90
2019-01-11T02:44:30.511Z,90.10
2019-01-11T02:47:00.951Z,90.10
2019-01-11T02:49:31.418Z,90.00
2019-01-11T02:52:01.922Z,90.10
2019-01-11T02:54:32.736Z,90.00
2019-01-11T02:57:03.208Z,90.00
2019-01-11T02:59:33.761Z,89.70
2019-01-11T03:02:04.545Z,89.80
2019-01-11T03:04:36.446Z,89.60
2019-01-11T03:07:06.896Z,89.60
2019-01-11T03:09:37.716Z,89.60
2019-01-11T03:12:09.357Z,89.60
2019-01-11T03:14:39.793Z,89.70
2019-01-11T03:17:10.339Z,89.50
2019-01-11T03:19:47.686Z,89.40
2019-01-11T03:22:14.611Z,89.60
2019-01-11T03:24:45.539Z,89.60
2019-01-11T03:27:16.141Z,89.80
2019-01-11T03:29:46.937Z,90.00
2019-01-11T03:32:17.908Z,89.70
2019-01-11T03:35:16.497Z,89.70
2019-01-11T03:37:48.796Z,89.70
2019-01-11T03:40:24.505Z,89.80
2019-01-11T03:42:55.015Z,89.80
2019-01-11T03:45:25.640Z,89.40
2019-01-11T03:47:57.085Z,89.40
2019-01-11T03:50:27.629Z,89.40
2019-01-11T03:52:58.090Z,89.60
2019-01-11T03:55:28.847Z,89.60
2019-01-11T03:57:59.332Z,89.40
2019-01-11T04:00:30.093Z,89.40
2019-01-11T04:03:00.837Z,89.30
2019-01-11T04:05:31.304Z,89.60
2019-01-11T04:08:01.780Z,89.70
2019-01-11T04:10:32.247Z,89.70
2019-01-11T04:13:02.736Z,89.60
2019-01-11T04:15:33.274Z,90.30
2019-01-11T04:18:37.925Z,89.90
2019-01-11T04:21:08.461Z,89.70
2019-01-11T04:23:38.946Z,89.70
2019-01-11T04:26:09.446Z,89.40
2019-01-11T04:28:40.234Z,89.30
2019-01-11T04:31:10.715Z,89.20
2019-01-11T04:33:41.215Z,89.30
2019-01-11T04:36:11.709Z,89.30
2019-01-11T04:38:42.201Z,89.40
2019-01-11T04:41:12.711Z,89.40
2019-01-11T04:43:44.086Z,89.40
2019-01-11T04:46:14.715Z,89.60
2019-01-11T04:48:46.159Z,89.60
2019-01-11T04:51:16.627Z,89.60
2019-01-11T04:53:48.840Z,89.60
2019-01-11T04:56:19.288Z,89.70
2019-01-11T04:58:49.745Z,89.60
2019-01-11T05:01:20.211Z,89.80
2019-01-11T05:03:50.763Z,89.90
2019-01-11T05:06:21.232Z,90.00
2019-01-11T05:08:52.887Z,89.90
2019-01-11T05:11:23.351Z,90.00
2019-01-11T05:13:56.886Z,89.90
2019-01-11T05:16:27.370Z,89.90
2019-01-11T05:18:58.102Z,89.80
2019-01-11T05:21:28.629Z,89.60
2019-01-11T05:23:59.108Z,89.40
2019-01-11T05:26:30.564Z,89.70
2019-01-11T05:29:01.058Z,89.80
2019-01-11T05:31:31.540Z,89.80
2019-01-11T05:34:02.041Z,90.20
2019-01-11T05:36:32.516Z,89.80
2019-01-11T05:39:04.297Z,89.50
2019-01-11T05:41:34.767Z,89.50
2019-01-11T05:44:05.304Z,89.50
2019-01-11T05:46:35.897Z,89.70
2019-01-11T05:49:07.296Z,89.70
2019-01-11T05:51:37.759Z,89.60
2019-01-11T05:54:08.212Z,89.70
2019-01-11T05:56:38.702Z,89.70
2019-01-11T05:59:09.670Z,89.70
2019-01-11T06:01:40.785Z,89.70
2019-01-11T06:04:29.297Z,90.00
2019-01-11T06:07:24.860Z,89.70
2019-01-11T06:09:55.340Z,89.60
2019-01-11T06:12:25.812Z,89.90
2019-01-11T06:14:56.353Z,89.30
2019-01-11T06:17:26.830Z,89.10
2019-01-11T06:19:57.272Z,89.30
2019-01-11T06:22:28.009Z,89.30
2019-01-11T06:24:58.506Z,89.30
2019-01-11T06:27:29.285Z,89.40
2019-01-11T06:30:00.081Z,89.60
2019-01-11T06:32:30.641Z,89.60
2019-01-11T06:35:01.175Z,89.50
2019-01-11T06:37:31.663Z,89.70
2019-01-11T06:40:02.133Z,89.30
2019-01-11T06:42:33.037Z,89.20
2019-01-11T06:45:03.846Z,89.30
2019-01-11T06:47:34.326Z,89.60
2019-01-11T06:50:04.348Z,89.30
2019-01-11T06:52:34.587Z,89.40
2019-01-11T06:55:04.287Z,89.50
2019-01-11T06:57:33.628Z,89.40
2019-01-11T07:00:02.886Z,89.40
2019-01-11T07:02:32.196Z,89.30
2019-01-11T07:05:01.433Z,89.30
2019-01-11T07:07:30.694Z,89.20
2019-01-11T07:09:59.920Z,89.30
2019-01-11T07:12:29.194Z,89.00
2019-01-11T07:14:58.458Z,89.00
2019-01-11T07:17:27.705Z,89.20
2019-01-11T07:19:56.952Z,89.10
2019-01-11T07:22:26.229Z,89.00
2019-01-11T07:24:55.472Z,89.00
2019-01-11T07:27:25.685Z,89.00
2019-01-11T07:29:54.940Z,88.80
2019-01-11T07:32:24.209Z,88.70
2019-01-11T07:34:53.582Z,88.80
2019-01-11T07:37:22.824Z,88.40
2019-01-11T07:39:52.130Z,88.50
2019-01-11T07:42:21.390Z,88.50
2019-01-11T07:44:50.649Z,88.40
2019-01-11T07:47:19.908Z,88.20
2019-01-11T07:49:49.862Z,88.50
2019-01-11T07:52:19.112Z,88.20
2019-01-11T07:54:48.378Z,88.50
2019-01-11T07:57:17.633Z,88.60
2019-01-11T07:59:46.877Z,88.60
2019-01-11T08:02:17.482Z,88.40
2019-01-11T08:04:47.961Z,88.50
2019-01-11T08:07:18.497Z,88.70
2019-01-11T08:09:50.462Z,88.40
2019-01-11T08:12:20.948Z,87.60
2019-01-11T08:14:51.398Z,87.10
2019-01-11T08:17:21.849Z,86.40
2019-01-11T08:19:52.316Z,85.60
2019-01-11T08:22:47.728Z,85.10
2019-01-11T08:25:18.204Z,84.80
2019-01-11T08:27:48.659Z,84.50
2019-01-11T08:30:19.104Z,84.10
2019-01-11T08:32:49.570Z,83.50
2019-01-11T08:35:20.145Z,83.50
2019-01-11T08:37:50.744Z,82.90
2019-01-11T08:40:21.305Z,82.60
2019-01-11T08:42:52.389Z,81.30
2019-01-11T08:45:22.845Z,80.30
2019-01-11T08:47:53.364Z,80.00
2019-01-11T08:50:23.816Z,80.10
2019-01-11T08:52:54.331Z,80.00
2019-01-11T08:55:24.965Z,80.00
2019-01-11T08:57:55.400Z,80.10
2019-01-11T09:00:26.159Z,80.30
2019-01-11T09:02:56.576Z,80.80
2019-01-11T09:05:27.009Z,80.30
2019-01-11T09:07:57.447Z,80.20
2019-01-11T09:10:27.885Z,79.50
2019-01-11T09:12:58.341Z,79.00
2019-01-11T09:15:28.800Z,78.30
2019-01-11T09:18:16.201Z,76.90
2019-01-11T09:20:47.177Z,76.80
2019-01-11T09:23:17.978Z,76.50
2019-01-11T09:25:48.492Z,76.20
2019-01-11T09:28:18.910Z,76.90
2019-01-11T09:30:49.466Z,75.90
2019-01-11T09:33:20.859Z,75.50
2019-01-11T09:35:52.175Z,75.60
2019-01-11T09:38:22.634Z,75.80
2019-01-11T09:40:53.134Z,76.10
2019-01-11T09:43:23.596Z,75.70
2019-01-11T09:45:54.033Z,75.40
2019-01-11T09:48:24.461Z,75.40
2019-01-11T09:50:54.989Z,74.70
2019-01-11T09:53:25.713Z,74.90
2019-01-11T09:55:56.173Z,74.70
2019-01-11T09:58:26.849Z,74.40
2019-01-11T10:00:59.271Z,74.60
2019-01-11T10:03:29.409Z,72.80
2019-01-11T10:05:59.856Z,73.50
2019-01-11T10:08:30.293Z,73.60
2019-01-11T10:11:00.794Z,73.40
2019-01-11T10:13:31.252Z,72.80
2019-01-11T10:16:01.712Z,71.80
2019-01-11T10:18:32.261Z,72.20
2019-01-11T10:21:02.701Z,71.50
2019-01-11T10:23:33.501Z,71.60
2019-01-11T10:26:04.876Z,71.40
2019-01-11T10:28:35.332Z,71.10
2019-01-11T10:31:13.279Z,70.90
2019-01-11T10:33:43.736Z,71.00
2019-01-11T10:36:14.197Z,70.70
2019-01-11T10:38:45.809Z,69.80
2019-01-11T10:41:16.304Z,70.40
2019-01-11T10:43:46.831Z,70.70
2019-01-11T10:46:54.533Z,70.70
2019-01-11T10:49:25.001Z,70.60
2019-01-11T10:51:55.464Z,71.50
2019-01-11T10:54:40.504Z,71.20
2019-01-11T10:57:11.479Z,70.50
2019-01-11T10:59:42.032Z,70.90
2019-01-11T11:02:12.551Z,71.30
2019-01-11T11:04:42.985Z,71.10
2019-01-11T11:07:13.926Z,71.10
2019-01-11T11:09:44.377Z,70.70
2019-01-11T11:12:15.109Z,70.50
2019-01-11T11:14:45.612Z,70.80
2019-01-11T11:17:16.061Z,70.80
2019-01-11T11:19:47.028Z,70.80
2019-01-11T11:22:17.592Z,70.80
2019-01-11T11:24:48.033Z,70.30
2019-01-11T11:27:18.492Z,70.20
2019-01-11T11:29:48.953Z,69.90
2019-01-11T11:32:26.568Z,69.20
2019-01-11T11:34:57.045Z,69.40
2019-01-11T11:37:28.969Z,68.90
2019-01-11T11:39:59.440Z,67.50
2019-01-11T11:42:29.909Z,66.10
2019-01-11T11:45:00.392Z,65.40
2019-01-11T11:47:30.892Z,65.90
2019-01-11T11:50:01.819Z,66.00
2019-01-11T11:52:32.285Z,65.50
2019-01-11T11:55:02.778Z,65.50
2019-01-11T11:57:33.899Z,66.50
2019-01-11T12:00:07.056Z,66.70
2019-01-11T12:02:37.519Z,65.50
2019-01-11T12:05:08.398Z,66.30
2019-01-11T12:08:25.013Z,66.70
2019-01-11T12:10:55.602Z,66.90
2019-01-11T12:13:41.339Z,67.40
2019-01-11T12:16:13.409Z,67.30
2019-01-11T12:18:44.407Z,68.20
2019-01-11T12:21:24.398Z,68.50
2019-01-11T12:23:54.334Z,69.30
2019-01-11T12:26:25.076Z,69.40
2019-01-11T12:28:59.139Z,69.50
2019-01-11T12:31:29.683Z,69.80
2019-01-11T12:34:02.025Z,69.20
2019-01-11T12:36:32.553Z,69.90
2019-01-11T12:39:03.602Z,70.10
2019-01-11T12:41:34.360Z,70.80
2019-01-11T12:44:04.943Z,70.80
2019-01-11T12:46:35.449Z,71.00
2019-01-11T12:49:06.019Z,71.60
2019-01-11T12:51:36.582Z,71.90
2019-01-11T12:54:07.055Z,72.50
2019-01-11T12:56:37.527Z,73.00
2019-01-11T12:59:08.006Z,74.00
2019-01-11T13:01:39.532Z,74.40
2019-01-11T13:04:10.107Z,73.70
2019-01-11T13:06:40.894Z,74.10
2019-01-11T13:09:11.546Z,74.40
2019-01-11T13:11:42.430Z,74.30
2019-01-11T13:14:13.052Z,74.90
2019-01-11T13:16:43.566Z,74.40
2019-01-11T13:19:14.429Z,75.30
2019-01-11T13:21:44.883Z,75.20
2019-01-11T13:24:15.423Z,75.00
2019-01-11T13:26:45.904Z,74.70
2019-01-11T13:29:16.873Z,74.20
2019-01-11T13:31:47.419Z,74.20
2019-01-11T13:34:17.925Z,74.70
2019-01-11T13:36:53.931Z,74.50
2019-01-11T13:39:20.658Z,74.60
2019-01-11T13:41:51.322Z,74.70
2019-01-11T13:44:22.803Z,75.40
2019-01-11T13:46:53.691Z,75.20
2019-01-11T13:49:24.600Z,75.70
2019-01-11T13:51:55.197Z,76.10
2019-01-11T13:54:26.767Z,75.50
2019-01-11T13:56:57.274Z,74.70
2019-01-11T13:59:27.964Z,75.40
2019-01-11T14:01:58.422Z,75.50
2019-01-11T14:04:28.926Z,75.70
2019-01-11T14:06:59.882Z,75.50
2019-01-11T14:09:30.609Z,75.20
2019-01-11T14:12:01.351Z,75.50
2019-01-11T14:14:31.865Z,75.30
2019-01-11T14:17:02.519Z,75.10
2019-01-11T14:19:33.293Z,75.00
2019-01-11T14:22:04.077Z,76.00
2019-01-11T14:24:34.565Z,75.90
2019-01-11T14:27:05.036Z,76.50
2019-01-11T14:29:35.468Z,76.70
2019-01-11T14:32:05.938Z,76.50
2019-01-11T14:34:36.406Z,77.10
2019-01-11T14:37:06.889Z,76.60
2019-01-11T14:39:37.382Z,76.80
2019-01-11T14:42:08.025Z,76.90
2019-01-11T14:44:38.523Z,77.10
2019-01-11T14:47:09.213Z,76.80
2019-01-11T14:49:39.737Z,77.10
2019-01-11T14:52:10.428Z,77.30
2019-01-11T14:54:40.927Z,77.70
2019-01-11T14:57:11.483Z,77.70
2019-01-11T14:59:42.037Z,77.60
2019-01-11T15:02:12.508Z,78.00
2019-01-11T15:04:43.049Z,78.00
2019-01-11T15:07:13.637Z,77.90
2019-01-11T15:09:44.502Z,77.70
2019-01-11T15:12:14.997Z,78.90
2019-01-11T15:14:45.546Z,77.70
2019-01-11T15:17:16.429Z,78.10
2019-01-11T15:19:47.005Z,78.50
2019-01-11T15:22:17.577Z,79.00
2019-01-11T15:24:48.082Z,79.20
2019-01-11T15:27:18.576Z,79.70
2019-01-11T15:29:49.140Z,79.70
2019-01-11T15:32:19.756Z,79.40
2019-01-11T15:34:51.087Z,79.60
2019-01-11T15:37:21.664Z,79.70
2019-01-11T15:39:52.260Z,79.90
2019-01-11T15:42:22.909Z,80.00
2019-01-11T15:44:53.478Z,80.30
2019-01-11T15:47:23.971Z,80.70
2019-01-11T15:49:54.549Z,80.60
2019-01-11T15:52:25.029Z,80.80
2019-01-11T15:54:55.525Z,81.50
2019-01-11T15:57:42.119Z,81.10
2019-01-11T16:00:21.000Z,81.00
2019-01-11T16:02:51.537Z,81.20
2019-01-11T16:05:22.173Z,81.20
2019-01-11T16:07:54.047Z,81.40
2019-01-11T16:10:25.076Z,81.70
2019-01-11T16:13:24.198Z,81.60
2019-01-11T16:16:19.860Z,81.50
2019-01-11T16:18:51.622Z,81.80
2019-01-11T16:21:22.092Z,81.80
2019-01-11T16:23:52.602Z,82.30
2019-01-11T16:26:23.126Z,82.30
2019-01-11T16:32:09.786Z,82.70
2019-01-11T16:34:40.477Z,83.10
2019-01-11T16:37:12.163Z,83.00
2019-01-11T16:39:42.820Z,83.00
2019-01-11T16:42:13.489Z,83.30
2019-01-11T16:44:44.246Z,83.50
2019-01-11T16:50:38.769Z,83.50
2019-01-11T16:56:16.576Z,83.30
2019-01-11T16:58:50.356Z,83.90
2019-01-11T17:01:23.747Z,84.00
2019-01-11T17:04:18.443Z,83.50
2019-01-11T17:07:52.719Z,83.80
2019-01-11T17:10:23.675Z,83.30
2019-01-11T17:13:05.216Z,83.30
2019-01-11T17:15:35.744Z,83.60
2019-01-11T17:18:06.371Z,83.30
2019-01-11T17:20:39.084Z,83.50
2019-01-11T17:23:10.186Z,83.70
2019-01-11T17:26:23.399Z,83.90
2019-01-11T17:28:55.118Z,83.50
2019-01-11T17:31:24.969Z,83.90
2019-01-11T17:33:54.331Z,83.90
2019-01-11T17:36:23.717Z,83.70
2019-01-11T17:38:53.588Z,84.20
2019-01-11T17:42:00.449Z,83.90
2019-01-11T17:44:39.910Z,83.90
2019-01-11T17:47:13.675Z,83.70
2019-01-11T17:49:43.566Z,83.90
2019-01-11T17:52:13.321Z,84.20
2019-01-11T17:54:42.923Z,84.50
2019-01-11T17:57:12.386Z,84.80
2019-01-11T17:59:44.766Z,85.10
2019-01-11T18:02:16.364Z,85.20
2019-01-11T18:04:46.615Z,85.40
2019-01-11T18:07:19.011Z,85.40
2019-01-11T18:09:48.753Z,85.10
2019-01-11T18:12:21.356Z,85.20
2019-01-11T18:14:53.094Z,85.20
2019-01-11T18:17:32.945Z,85.40
2019-01-11T18:20:02.850Z,85.20
2019-01-11T18:22:32.557Z,85.50
2019-01-11T18:25:07.717Z,85.80
2019-01-11T18:27:37.710Z,85.70
2019-01-11T18:30:08.766Z,86.00
2019-01-11T18:32:38.401Z,85.60
2019-01-11T18:35:08.782Z,86.30
2019-01-11T18:37:38.404Z,86.20
2019-01-11T18:40:09.947Z,86.30
2019-01-11T18:42:40.819Z,86.20
2019-01-11T18:45:10.531Z,86.40
2019-01-11T18:47:40.169Z,86.40
2019-01-11T18:50:11.386Z,86.90
2019-01-11T18:52:41.214Z,86.70
2019-01-11T18:55:11.023Z,86.90
2019-01-11T18:57:40.718Z,86.70
2019-01-11T19:00:13.372Z,86.80
2019-01-11T19:02:43.048Z,86.70
2019-01-11T19:05:12.787Z,86.70
2019-01-11T19:07:46.224Z,86.50
2019-01-11T19:10:14.305Z,86.70
2019-01-11T19:12:56.206Z,86.70
2019-01-11T19:15:26.611Z,87.50
2019-01-11T19:18:17.127Z,86.90
2019-01-11T19:20:46.782Z,86.90
2019-01-11T19:23:20.403Z,87.50
2019-01-11T19:29:43.462Z,87.10
2019-01-11T19:32:23.570Z,87.60
2019-01-11T19:37:54.715Z,88.70
2019-01-11T19:41:08.526Z,88.10
2019-01-11T19:43:37.983Z,88.20
2019-01-11T19:46:07.361Z,88.20
2019-01-11T19:48:36.688Z,88.30
2019-01-11T19:51:06.101Z,88.60
2019-01-11T19:53:35.402Z,88.70
2019-01-11T19:59:43.781Z,88.80
2019-01-11T20:02:13.613Z,88.80
2019-01-11T20:04:42.946Z,89.00
2019-01-11T20:07:26.704Z,88.80
2019-01-11T20:09:56.050Z,88.80
2019-01-11T20:12:25.392Z,89.10
2019-01-11T20:14:54.760Z,89.10
2019-01-11T20:17:24.252Z,89.00
2019-01-11T20:19:54.039Z,89.40
2019-01-11T20:22:23.673Z,89.20
2019-01-11T20:24:57.481Z,89.40
2019-01-11T20:27:26.553Z,89.60
2019-01-11T20:29:55.901Z,89.60
2019-01-11T20:32:25.363Z,89.70
2019-01-11T20:34:54.627Z,89.70
2019-01-11T20:37:28.432Z,89.70
2019-01-11T20:39:59.409Z,89.60
2019-01-11T20:42:28.750Z,89.80
2019-01-11T20:44:58.038Z,90.20
2019-01-11T20:47:27.492Z,89.80
2019-01-11T20:49:56.770Z,89.90
2019-01-11T20:52:26.211Z,90.10
2019-01-11T20:55:14.341Z,90.10
2019-01-11T20:57:54.188Z,90.10
2019-01-11T21:00:35.201Z,90.10
2019-01-11T21:06:22.141Z,90.10
2019-01-11T21:09:02.043Z,90.10
2019-01-11T21:12:12.862Z,90.20
2019-01-11T21:17:52.573Z,90.30
2019-01-11T21:27:17.037Z,90.20
2019-01-11T21:29:46.639Z,90.30
2019-01-11T21:32:16.448Z,90.10
2019-01-11T21:34:46.866Z,90.40
2019-01-11T21:38:10.756Z,90.30
2019-01-11T21:40:39.754Z,90.40
2019-01-11T21:43:09.278Z,90.40
2019-01-11T21:50:07.665Z,90.50
2019-01-11T21:56:10.578Z,90.50
2019-01-11T22:02:20.361Z,90.60
2019-01-11T22:04:50.345Z,90.60
2019-01-11T22:07:19.835Z,90.60
2019-01-11T22:09:49.769Z,90.60
2019-01-11T22:12:19.515Z,90.60
2019-01-11T22:15:01.749Z,90.70
2019-01-11T22:18:20.786Z,90.50
2019-01-11T22:27:38.091Z,90.70
2019-01-11T22:30:10.175Z,90.70
2019-01-11T22:32:40.103Z,90.70
2019-01-11T22:40:05.660Z,90.80
2019-01-11T22:41:37.703Z,90.70
2019-01-11T22:44:07.275Z,90.80
2019-01-11T22:50:02.898Z,90.70
2019-01-11T22:52:39.370Z,91.00
2019-01-11T22:55:10.023Z,90.70
2019-01-11T22:57:40.382Z,90.70
2019-01-11T23:00:17.571Z,90.80
2019-01-11T23:02:50.903Z,90.70
2019-01-11T23:05:21.265Z,90.80
2019-01-11T23:07:58.956Z,90.90
2019-01-11T23:11:00.201Z,90.80
2019-01-11T23:13:30.095Z,90.80
2019-01-11T23:16:05.702Z,90.80
2019-01-11T23:18:35.292Z,90.80
2019-01-11T23:21:06.288Z,90.80
2019-01-11T23:23:35.787Z,90.70
2019-01-11T23:26:09.052Z,90.90
2019-01-11T23:28:45.150Z,90.70
2019-01-11T23:31:14.717Z,90.60
2019-01-11T23:33:54.588Z,90.90
2019-01-11T23:36:29.419Z,91.00
2019-01-11T23:38:59.097Z,90.80
2019-01-11T23:41:28.756Z,90.80
2019-01-11T23:43:58.597Z,91.00
2019-01-11T23:46:28.385Z,90.80
2019-01-11T23:48:57.925Z,91.00
2019-01-11T23:51:42.554Z,90.90
2019-01-11T23:54:15.553Z,90.80
2019-01-11T23:56:46.685Z,90.90
2019-01-11T23:59:16.517Z,90.90
